Time;durP1;ratioP1;P1;durP2;ratioP2;P2;SDS_P1;SDS_P2;PMS_P1;PMS_P2;Temp;Humidity;BMP_temperature;BMP_pressure;BME280_temperature;BME280_humidity;BME280_pressure;Samples;Min_cycle;Max_cycle;Signal;HPM_P1;HPM_P2
2021/04/26 00:00:29;;;;;;;4.30;3.20;;;;;;;;;;2088844;28;20193;-61
2021/04/26 00:01:30;;;;;;;4.47;2.90;;;;;;;;;;2089870;28;20207;-63
2021/04/26 00:02:30;;;;;;;3.10;2.90;;;;;;;;;;2076090;28;20712;-62
2021/04/26 00:03:30;;;;;;;4.13;3.10;;;;;;;;;;2083891;28;20628;-62
2021/04/26 00:04:31;;;;;;;3.30;3.03;;;;;;;;;;2090429;28;20275;-62
2021/04/26 00:05:31;;;;;;;3.40;3.20;;;;;;;;;;2088576;28;20175;-60
2021/04/26 00:06:31;;;;;;;2.67;2.57;;;;;;;;;;2090102;28;20176;-61
2021/04/26 00:07:31;;;;;;;3.30;3.00;;;;;;;;;;2087417;28;20644;-62
2021/04/26 00:08:32;;;;;;;3.73;3.00;;;;;;;;;;2082425;28;20173;-61
2021/04/26 00:09:32;;;;;;;2.73;2.43;;;;;;;;;;2083359;28;20172;-61
2021/04/26 00:10:32;;;;;;;3.50;3.20;;;;;;;;;;2094352;28;20665;-63
2021/04/26 00:11:33;;;;;;;3.17;2.90;;;;;;;;;;2092136;28;20710;-61
2021/04/26 00:12:33;;;;;;;4.63;2.73;;;;;;;;;;2096869;28;20171;-62
2021/04/26 00:13:33;;;;;;;3.00;2.77;;;;;;;;;;2091604;28;20197;-61
2021/04/26 00:14:34;;;;;;;3.30;3.10;;;;;;;;;;2090008;28;20195;-61
2021/04/26 00:15:34;;;;;;;3.30;3.00;;;;;;;;;;2087955;28;20545;-61
2021/04/26 00:16:34;;;;;;;3.17;2.97;;;;;;;;;;2088358;28;20208;-61
2021/04/26 00:17:35;;;;;;;4.00;3.17;;;;;;;;;;2088457;28;20179;-61
2021/04/26 00:18:35;;;;;;;3.47;3.17;;;;;;;;;;2090444;28;20168;-63
2021/04/26 00:19:35;;;;;;;3.00;2.80;;;;;;;;;;2094041;28;20171;-61
2021/04/26 00:20:36;;;;;;;3.50;2.80;;;;;;;;;;2094960;28;20186;-60
2021/04/26 00:21:36;;;;;;;4.37;3.03;;;;;;;;;;2091849;28;20206;-61
2021/04/26 00:22:37;;;;;;;3.20;3.00;;;;;;;;;;2095327;28;20689;-60
2021/04/26 00:23:37;;;;;;;4.03;3.67;;;;;;;;;;2091918;28;20163;-61
2021/04/26 00:24:38;;;;;;;3.97;3.27;;;;;;;;;;2096273;28;20182;-61
2021/04/26 00:25:39;;;;;;;2.60;2.40;;;;;;;;;;2086262;28;20177;-62
2021/04/26 00:26:40;;;;;;;3.43;3.20;;;;;;;;;;2096096;28;20256;-61
2021/04/26 00:27:40;;;;;;;5.03;3.30;;;;;;;;;;2091761;28;20242;-62
2021/04/26 00:28:41;;;;;;;3.10;2.90;;;;;;;;;;2087890;28;20190;-62
2021/04/26 00:29:41;;;;;;;3.40;3.07;;;;;;;;;;2086672;28;20688;-59
2021/04/26 00:30:41;;;;;;;2.87;2.67;;;;;;;;;;2091634;28;20214;-61
2021/04/26 00:31:42;;;;;;;3.43;3.13;;;;;;;;;;2092325;28;20168;-61
2021/04/26 00:32:42;;;;;;;3.40;3.10;;;;;;;;;;2091058;28;20585;-61
2021/04/26 00:33:42;;;;;;;3.27;2.60;;;;;;;;;;2084930;28;20685;-60
2021/04/26 00:34:42;;;;;;;4.33;3.50;;;;;;;;;;2088621;28;20175;-63
2021/04/26 00:35:43;;;;;;;3.37;3.17;;;;;;;;;;2077576;28;20227;-59
2021/04/26 00:36:43;;;;;;;3.17;2.97;;;;;;;;;;2093771;28;20160;-61
2021/04/26 00:37:44;;;;;;;4.00;3.70;;;;;;;;;;2093393;28;20207;-59
2021/04/26 00:38:44;;;;;;;3.13;2.93;;;;;;;;;;2089991;28;20167;-60
2021/04/26 00:39:44;;;;;;;3.30;3.10;;;;;;;;;;2089513;28;20183;-58
2021/04/26 00:40:45;;;;;;;3.27;2.97;;;;;;;;;;2088827;28;20170;-61
2021/04/26 00:41:45;;;;;;;6.47;3.30;;;;;;;;;;2093481;28;20168;-61
2021/04/26 00:42:45;;;;;;;3.73;2.87;;;;;;;;;;2088903;28;20217;-61
2021/04/26 00:43:46;;;;;;;3.40;2.93;;;;;;;;;;2081656;28;20258;-61
2021/04/26 00:44:46;;;;;;;4.00;3.33;;;;;;;;;;2087905;28;20254;-61
2021/04/26 00:45:46;;;;;;;3.07;2.80;;;;;;;;;;2080079;28;20173;-62
2021/04/26 00:46:46;;;;;;;3.43;3.03;;;;;;;;;;2088730;28;20648;-62
2021/04/26 00:47:47;;;;;;;3.10;2.90;;;;;;;;;;2089889;28;20163;-62
2021/04/26 00:48:48;;;;;;;3.93;3.30;;;;;;;;;;2078733;28;20184;-60
2021/04/26 00:49:49;;;;;;;3.43;3.10;;;;;;;;;;2084543;28;20655;-61
2021/04/26 00:50:50;;;;;;;3.23;3.00;;;;;;;;;;2081936;28;20687;-61
2021/04/26 00:51:50;;;;;;;6.87;3.40;;;;;;;;;;2088800;28;20168;-61
2021/04/26 00:52:52;;;;;;;2.77;2.50;;;;;;;;;;2074987;28;20204;-61
2021/04/26 00:53:52;;;;;;;3.40;3.20;;;;;;;;;;2076152;28;20572;-61
2021/04/26 00:54:53;;;;;;;2.90;2.70;;;;;;;;;;2092388;28;20195;-62
2021/04/26 00:55:53;;;;;;;3.27;3.07;;;;;;;;;;2082535;28;20581;-61
2021/04/26 00:56:53;;;;;;;3.40;3.10;;;;;;;;;;2072915;28;20662;-62
2021/04/26 00:57:54;;;;;;;3.73;3.23;;;;;;;;;;2077897;28;20638;-61
2021/04/26 00:58:55;;;;;;;3.43;3.13;;;;;;;;;;2088736;28;20225;-61
2021/04/26 00:59:56;;;;;;;3.40;3.10;;;;;;;;;;2068111;28;20175;-61
2021/04/26 01:00:56;;;;;;;3.20;3.00;;;;;;;;;;2083918;28;20200;-61
2021/04/26 01:01:56;;;;;;;5.00;3.60;;;;;;;;;;2087984;28;20179;-60
2021/04/26 01:02:57;;;;;;;2.90;2.70;;;;;;;;;;2069511;28;20717;-61
2021/04/26 01:03:58;;;;;;;2.93;2.80;;;;;;;;;;2087715;28;20236;-62
2021/04/26 01:05:00;;;;;;;3.20;2.87;;;;;;;;;;2080548;28;20792;-60
2021/04/26 01:06:01;;;;;;;3.83;3.43;;;;;;;;;;2085252;28;20318;-62
2021/04/26 01:07:02;;;;;;;3.33;3.10;;;;;;;;;;2080235;28;20187;-62
2021/04/26 01:08:03;;;;;;;4.27;3.60;;;;;;;;;;2083017;28;20200;-61
2021/04/26 01:09:23;;;;;;;3.60;3.33;;;;;;;;;;2077604;28;20183;-62
2021/04/26 01:10:28;;;;;;;3.70;3.40;;;;;;;;;;2080790;28;20199;-62
2021/04/26 01:11:33;;;;;;;4.10;3.63;;;;;;;;;;2087199;28;20432;-61
2021/04/26 01:12:41;;;;;;;3.90;3.60;;;;;;;;;;2095727;28;20164;-62
2021/04/26 01:13:44;;;;;;;4.17;3.07;;;;;;;;;;2081728;28;20168;-62
2021/04/26 01:15:09;;;;;;;3.90;3.50;;;;;;;;;;2073448;28;20173;-62
2021/04/26 01:16:39;;;;;;;3.97;3.50;;;;;;;;;;2073229;28;20167;-62
2021/04/26 01:17:48;;;;;;;3.40;3.20;;;;;;;;;;2075247;28;20651;-62
2021/04/26 01:19:02;;;;;;;4.93;3.13;;;;;;;;;;2072609;28;20177;-62
2021/04/26 01:20:14;;;;;;;3.90;3.53;;;;;;;;;;2074500;28;20173;-64
2021/04/26 01:21:20;;;;;;;4.13;2.90;;;;;;;;;;2068651;28;20209;-61
2021/04/26 01:22:40;;;;;;;5.47;3.23;;;;;;;;;;2076604;28;20199;-62
2021/04/26 01:23:53;;;;;;;3.43;3.23;;;;;;;;;;2087162;28;20203;-61
2021/04/26 01:25:00;;;;;;;4.70;3.40;;;;;;;;;;2068148;28;20173;-62
2021/04/26 01:26:01;;;;;;;4.50;3.13;;;;;;;;;;2079848;28;20172;-62
2021/04/26 01:27:17;;;;;;;3.40;3.20;;;;;;;;;;2083252;28;20251;-61
2021/04/26 01:28:42;;;;;;;4.23;3.37;;;;;;;;;;2088608;28;20199;-63
2021/04/26 01:29:56;;;;;;;3.73;3.43;;;;;;;;;;2080210;28;20168;-61
2021/04/26 01:31:08;;;;;;;3.93;3.30;;;;;;;;;;2073732;28;20356;-61
2021/04/26 01:32:32;;;;;;;3.30;3.10;;;;;;;;;;2094795;28;20177;-62
2021/04/26 01:33:38;;;;;;;3.73;3.43;;;;;;;;;;2086616;28;20343;-61
2021/04/26 01:34:39;;;;;;;4.00;3.20;;;;;;;;;;2072298;28;20725;-61
2021/04/26 01:35:51;;;;;;;3.50;3.17;;;;;;;;;;2076617;28;20177;-60
2021/04/26 01:36:53;;;;;;;5.93;3.50;;;;;;;;;;2092599;28;20168;-61
2021/04/26 01:38:08;;;;;;;3.90;3.60;;;;;;;;;;2080580;28;20176;-62
2021/04/26 01:39:08;;;;;;;4.07;3.53;;;;;;;;;;2076931;28;20180;-63
2021/04/26 01:40:12;;;;;;;5.27;3.03;;;;;;;;;;2068856;28;20295;-62
2021/04/26 01:41:13;;;;;;;3.97;3.53;;;;;;;;;;2069795;28;20280;-61
2021/04/26 01:42:14;;;;;;;4.20;3.90;;;;;;;;;;2083801;28;20201;-62
2021/04/26 01:43:16;;;;;;;3.97;3.63;;;;;;;;;;2085409;28;20524;-62
2021/04/26 01:44:18;;;;;;;4.10;3.80;;;;;;;;;;2069795;28;20626;-62
2021/04/26 01:45:19;;;;;;;3.33;3.13;;;;;;;;;;2082891;28;20412;-62
2021/04/26 01:46:21;;;;;;;5.57;3.87;;;;;;;;;;2083761;28;20200;-62
2021/04/26 01:47:22;;;;;;;4.53;3.50;;;;;;;;;;2077160;28;20756;-62
2021/04/26 01:48:25;;;;;;;4.17;3.37;;;;;;;;;;2076437;28;20442;-61
2021/04/26 01:49:28;;;;;;;3.83;3.43;;;;;;;;;;2082426;28;20660;-62
2021/04/26 01:50:28;;;;;;;5.50;3.77;;;;;;;;;;2067470;28;20181;-59
2021/04/26 01:51:29;;;;;;;5.27;4.07;;;;;;;;;;2075610;28;20243;-62
2021/04/26 01:52:31;;;;;;;3.83;3.50;;;;;;;;;;2087644;28;20241;-62
2021/04/26 01:53:31;;;;;;;4.77;3.83;;;;;;;;;;2080718;28;20404;-61
2021/04/26 01:54:32;;;;;;;4.53;3.93;;;;;;;;;;2086573;28;20723;-63
2021/04/26 01:55:34;;;;;;;4.27;3.87;;;;;;;;;;2095670;28;20171;-63
2021/04/26 01:56:36;;;;;;;3.70;3.40;;;;;;;;;;2085808;28;20164;-65
2021/04/26 01:57:41;;;;;;;3.70;3.40;;;;;;;;;;2094707;28;20179;-61
2021/04/26 01:58:43;;;;;;;5.97;4.20;;;;;;;;;;2081519;28;20171;-62
2021/04/26 01:59:44;;;;;;;3.87;3.57;;;;;;;;;;2085933;28;20976;-61
2021/04/26 02:00:44;;;;;;;5.03;3.37;;;;;;;;;;2078383;28;20422;-61
2021/04/26 02:01:45;;;;;;;4.17;3.70;;;;;;;;;;2080130;28;20220;-59
2021/04/26 02:02:48;;;;;;;4.43;4.10;;;;;;;;;;2088473;28;20255;-62
2021/04/26 02:03:50;;;;;;;6.93;3.83;;;;;;;;;;2071362;28;20165;-62
2021/04/26 02:05:11;;;;;;;5.03;4.00;;;;;;;;;;2077281;28;20180;-62
2021/04/26 02:06:22;;;;;;;6.07;3.90;;;;;;;;;;2075186;28;20575;-62
2021/04/26 02:07:46;;;;;;;3.97;3.43;;;;;;;;;;2052472;28;20876;-62
2021/04/26 02:08:52;;;;;;;5.37;3.50;;;;;;;;;;2068491;28;20413;-62
2021/04/26 02:09:54;;;;;;;4.90;4.00;;;;;;;;;;2084472;28;20177;-62
2021/04/26 02:10:55;;;;;;;7.03;4.00;;;;;;;;;;2070293;28;20193;-64
2021/04/26 02:11:58;;;;;;;6.77;4.03;;;;;;;;;;2067482;28;20257;-61
2021/04/26 02:13:06;;;;;;;3.97;3.67;;;;;;;;;;2095928;28;20209;-59
2021/04/26 02:14:08;;;;;;;4.43;4.03;;;;;;;;;;2080637;28;20411;-62
2021/04/26 02:15:10;;;;;;;6.37;3.77;;;;;;;;;;2080493;28;20203;-62
2021/04/26 02:16:10;;;;;;;4.33;3.50;;;;;;;;;;2086445;28;20474;-61
2021/04/26 02:17:12;;;;;;;4.17;3.70;;;;;;;;;;2086482;28;20615;-63
2021/04/26 02:18:13;;;;;;;7.87;3.93;;;;;;;;;;2084414;28;20171;-62
2021/04/26 02:19:14;;;;;;;4.33;3.93;;;;;;;;;;2097725;28;20167;-61
2021/04/26 02:20:15;;;;;;;4.10;3.80;;;;;;;;;;2094429;28;20229;-62
2021/04/26 02:21:16;;;;;;;7.00;4.40;;;;;;;;;;2089254;28;20846;-61
2021/04/26 02:22:17;;;;;;;4.30;3.90;;;;;;;;;;2077134;28;20177;-62
2021/04/26 02:23:30;;;;;;;4.13;3.83;;;;;;;;;;2073887;28;20181;-62
2021/04/26 02:24:30;;;;;;;4.10;3.70;;;;;;;;;;2080364;28;20589;-62
2021/04/26 02:25:31;;;;;;;4.30;3.90;;;;;;;;;;2094809;28;20437;-62
2021/04/26 02:26:32;;;;;;;4.17;3.87;;;;;;;;;;2091975;28;20175;-62
2021/04/26 02:27:32;;;;;;;4.40;4.00;;;;;;;;;;2090048;28;20179;-60
2021/04/26 02:28:32;;;;;;;4.60;4.20;;;;;;;;;;2072140;28;20696;-62
2021/04/26 02:29:33;;;;;;;4.40;3.77;;;;;;;;;;2071949;28;20187;-62
2021/04/26 02:30:33;;;;;;;4.23;3.73;;;;;;;;;;2089760;28;20178;-60
2021/04/26 02:31:34;;;;;;;4.80;4.00;;;;;;;;;;2082264;28;20667;-62
2021/04/26 02:32:45;;;;;;;5.63;4.03;;;;;;;;;;2087333;28;20679;-62
2021/04/26 02:34:25;;;;;;;5.57;4.50;;;;;;;;;;2082987;28;20622;-62
2021/04/26 02:35:33;;;;;;;4.77;4.13;;;;;;;;;;2063400;28;20649;-62
2021/04/26 02:36:35;;;;;;;4.60;4.20;;;;;;;;;;2077183;28;20400;-62
2021/04/26 02:37:49;;;;;;;5.20;4.30;;;;;;;;;;2075190;28;20406;-62
2021/04/26 02:38:52;;;;;;;4.53;4.00;;;;;;;;;;2081625;28;20446;-61
2021/04/26 02:39:58;;;;;;;4.87;4.43;;;;;;;;;;2089452;28;20231;-61
2021/04/26 02:41:05;;;;;;;5.80;3.90;;;;;;;;;;2080401;28;20434;-61
2021/04/26 02:42:06;;;;;;;4.63;4.23;;;;;;;;;;2088677;28;20466;-62
2021/04/26 02:43:13;;;;;;;4.80;4.10;;;;;;;;;;2085251;28;20393;-53
2021/04/26 02:44:29;;;;;;;4.67;4.27;;;;;;;;;;2087346;28;20254;-61
2021/04/26 02:45:35;;;;;;;5.30;4.40;;;;;;;;;;2091370;28;20170;-62
2021/04/26 02:46:35;;;;;;;5.43;4.30;;;;;;;;;;2089831;28;20933;-63
2021/04/26 02:47:39;;;;;;;5.57;4.00;;;;;;;;;;2081774;28;21166;-61
2021/04/26 02:48:46;;;;;;;4.50;4.20;;;;;;;;;;2074286;28;20505;-59
2021/04/26 02:49:48;;;;;;;5.30;4.00;;;;;;;;;;2088874;28;20419;-62
2021/04/26 02:50:53;;;;;;;5.10;4.60;;;;;;;;;;2085781;28;20841;-59
2021/04/26 02:51:53;;;;;;;5.20;4.67;;;;;;;;;;2075390;28;20188;-62
2021/04/26 02:52:54;;;;;;;4.33;3.97;;;;;;;;;;2095757;28;20395;-61
2021/04/26 02:53:56;;;;;;;4.57;4.17;;;;;;;;;;2074912;28;20489;-59
2021/04/26 02:54:57;;;;;;;4.53;4.23;;;;;;;;;;2081754;28;20184;-61
2021/04/26 02:56:00;;;;;;;5.10;4.63;;;;;;;;;;2080141;28;20973;-62
2021/04/26 02:57:03;;;;;;;5.53;4.13;;;;;;;;;;2073249;28;20464;-61
2021/04/26 02:58:03;;;;;;;4.03;3.73;;;;;;;;;;2084592;28;20417;-60
2021/04/26 02:59:06;;;;;;;5.30;3.97;;;;;;;;;;2097177;28;20648;-61
2021/04/26 03:00:13;;;;;;;4.70;4.30;;;;;;;;;;2091682;28;20266;-61
2021/04/26 03:01:34;;;;;;;8.23;4.50;;;;;;;;;;2084388;28;20409;-61
2021/04/26 03:02:43;;;;;;;4.73;4.33;;;;;;;;;;2082355;28;20425;-62
2021/04/26 03:03:49;;;;;;;4.80;4.03;;;;;;;;;;2090934;28;20171;-62
2021/04/26 03:04:51;;;;;;;5.03;4.33;;;;;;;;;;2074869;28;20417;-61
2021/04/26 03:05:52;;;;;;;4.50;4.10;;;;;;;;;;2075750;28;20461;-60
2021/04/26 03:06:53;;;;;;;4.13;3.87;;;;;;;;;;2082203;28;20400;-62
2021/04/26 03:07:58;;;;;;;4.50;4.13;;;;;;;;;;2083987;28;20208;-61
2021/04/26 03:08:58;;;;;;;5.57;4.47;;;;;;;;;;2097752;28;20457;-62
2021/04/26 03:10:00;;;;;;;5.20;4.47;;;;;;;;;;2081568;28;20299;-60
2021/04/26 03:11:04;;;;;;;6.87;4.23;;;;;;;;;;2085974;28;20673;-60
2021/04/26 03:12:06;;;;;;;4.53;4.13;;;;;;;;;;2090055;28;20869;-63
2021/04/26 03:13:20;;;;;;;5.00;4.33;;;;;;;;;;2087139;28;20225;-62
2021/04/26 03:14:21;;;;;;;5.33;4.00;;;;;;;;;;2087455;28;20408;-60
2021/04/26 03:15:24;;;;;;;9.23;5.90;;;;;;;;;;2086521;28;20413;-61
2021/04/26 03:16:24;;;;;;;4.53;4.13;;;;;;;;;;2082515;28;20184;-61
2021/04/26 03:17:26;;;;;;;6.20;4.63;;;;;;;;;;2082212;28;20482;-62
2021/04/26 03:18:38;;;;;;;5.97;4.57;;;;;;;;;;2085902;28;20662;-62
2021/04/26 03:19:41;;;;;;;5.27;4.30;;;;;;;;;;2073318;28;20414;-61
2021/04/26 03:20:43;;;;;;;6.40;4.20;;;;;;;;;;2080384;28;20949;-62
2021/04/26 03:21:53;;;;;;;4.40;4.10;;;;;;;;;;2075006;28;20869;-61
2021/04/26 03:22:54;;;;;;;4.63;4.00;;;;;;;;;;2079969;28;20439;-60
2021/04/26 03:23:55;;;;;;;4.47;4.07;;;;;;;;;;2088615;28;20427;-61
2021/04/26 03:24:55;;;;;;;7.40;4.70;;;;;;;;;;2081617;28;20182;-62
2021/04/26 03:25:57;;;;;;;5.00;4.27;;;;;;;;;;2080304;28;20404;-62
2021/04/26 03:27:00;;;;;;;6.53;4.13;;;;;;;;;;2079425;28;20222;-61
2021/04/26 03:28:03;;;;;;;5.17;4.00;;;;;;;;;;2080623;28;20460;-59
2021/04/26 03:29:10;;;;;;;4.47;4.07;;;;;;;;;;2076904;28;20444;-60
2021/04/26 03:30:15;;;;;;;5.67;4.33;;;;;;;;;;2081892;28;20424;-59
2021/04/26 03:31:27;;;;;;;6.40;4.83;;;;;;;;;;2079919;28;20478;-62
2021/04/26 03:32:31;;;;;;;5.53;4.57;;;;;;;;;;2087280;28;20482;-62
2021/04/26 03:33:40;;;;;;;4.50;4.20;;;;;;;;;;2088173;28;20404;-62
2021/04/26 03:34:41;;;;;;;4.97;4.57;;;;;;;;;;2072436;28;20421;-62
2021/04/26 03:35:42;;;;;;;5.87;4.07;;;;;;;;;;2072244;28;20426;-61
2021/04/26 03:36:43;;;;;;;6.07;4.60;;;;;;;;;;2088819;28;20156;-61
2021/04/26 03:37:47;;;;;;;5.07;4.53;;;;;;;;;;2086804;28;20498;-61
2021/04/26 03:38:50;;;;;;;5.17;4.73;;;;;;;;;;2098681;28;20167;-64
2021/04/26 03:39:53;;;;;;;4.77;4.20;;;;;;;;;;2069910;28;20434;-62
2021/04/26 03:40:57;;;;;;;6.93;4.93;;;;;;;;;;2080072;28;22176;-60
2021/04/26 03:42:01;;;;;;;5.27;4.40;;;;;;;;;;2091034;28;20869;-61
2021/04/26 03:43:04;;;;;;;5.23;4.73;;;;;;;;;;2087433;28;20413;-62
2021/04/26 03:44:24;;;;;;;9.07;4.47;;;;;;;;;;2086625;28;20457;-61
2021/04/26 03:45:59;;;;;;;5.73;5.23;;;;;;;;;;2075569;28;20434;-61
2021/04/26 03:47:28;;;;;;;5.00;4.60;;;;;;;;;;2048250;28;20413;-61
2021/04/26 03:48:48;;;;;;;5.57;4.50;;;;;;;;;;2070440;28;20387;-62
2021/04/26 03:50:21;;;;;;;4.73;4.23;;;;;;;;;;2072793;28;20406;-61
2021/04/26 03:51:40;;;;;;;4.97;4.50;;;;;;;;;;2080065;28;20429;-61
2021/04/26 03:53:06;;;;;;;5.90;4.50;;;;;;;;;;2079106;28;20422;-58
2021/04/26 03:54:39;;;;;;;5.13;4.30;;;;;;;;;;2061881;28;20405;-61
2021/04/26 03:55:39;;;;;;;4.53;4.10;;;;;;;;;;2087568;28;20423;-62
2021/04/26 03:56:40;;;;;;;5.83;4.47;;;;;;;;;;2074150;28;20259;-60
2021/04/26 03:57:42;;;;;;;5.40;4.30;;;;;;;;;;2089051;28;20254;-62
2021/04/26 03:58:42;;;;;;;5.23;4.30;;;;;;;;;;2081675;28;20424;-61
2021/04/26 03:59:43;;;;;;;5.87;4.43;;;;;;;;;;2078673;28;20260;-62
2021/04/26 04:00:44;;;;;;;6.20;4.87;;;;;;;;;;2077912;28;20260;-62
2021/04/26 04:01:48;;;;;;;7.63;7.13;;;;;;;;;;2080223;28;20418;-62
2021/04/26 04:02:49;;;;;;;6.20;5.70;;;;;;;;;;2086898;28;20407;-62
2021/04/26 04:03:51;;;;;;;9.17;5.10;;;;;;;;;;2073012;28;20410;-61
2021/04/26 04:04:55;;;;;;;6.33;5.03;;;;;;;;;;2077100;28;20793;-61
2021/04/26 04:06:15;;;;;;;8.53;5.37;;;;;;;;;;2094026;28;20404;-62
2021/04/26 04:07:42;;;;;;;5.13;4.63;;;;;;;;;;2081580;28;20394;-62
2021/04/26 04:09:03;;;;;;;5.53;5.03;;;;;;;;;;2045570;28;20429;-61
2021/04/26 04:10:22;;;;;;;10.47;5.47;;;;;;;;;;2082881;28;20930;-61
2021/04/26 04:11:43;;;;;;;7.07;6.37;;;;;;;;;;2097199;28;20395;-62
2021/04/26 04:12:59;;;;;;;8.33;6.13;;;;;;;;;;2084604;28;20425;-62
2021/04/26 04:13:59;;;;;;;8.73;6.20;;;;;;;;;;2097054;28;20900;-62
2021/04/26 04:15:00;;;;;;;6.53;5.87;;;;;;;;;;2082013;28;20180;-62
2021/04/26 04:16:00;;;;;;;6.00;5.40;;;;;;;;;;2088344;28;20172;-62
2021/04/26 04:17:02;;;;;;;6.20;5.70;;;;;;;;;;2084797;28;20950;-62
2021/04/26 04:18:02;;;;;;;5.67;5.03;;;;;;;;;;2083489;28;20658;-61
2021/04/26 04:19:09;;;;;;;6.27;5.67;;;;;;;;;;2089298;28;20959;-62
2021/04/26 04:20:12;;;;;;;5.73;5.20;;;;;;;;;;2084625;28;20472;-62
2021/04/26 04:22:29;;;;;;;7.30;5.07;;;;;;;;;;2086190;28;20488;-57
2021/04/26 04:23:36;;;;;;;7.67;4.97;;;;;;;;;;2087731;28;20918;-58
2021/04/26 04:24:36;;;;;;;6.70;4.63;;;;;;;;;;2088398;28;20424;-57
2021/04/26 04:25:36;;;;;;;5.87;5.13;;;;;;;;;;2088807;28;20159;-58
2021/04/26 04:26:37;;;;;;;9.10;4.73;;;;;;;;;;2091380;28;20204;-57
2021/04/26 04:27:42;;;;;;;5.70;5.00;;;;;;;;;;2075794;28;20162;-56
2021/04/26 04:28:44;;;;;;;6.77;4.80;;;;;;;;;;2076665;28;20885;-58
2021/04/26 04:30:02;;;;;;;6.83;4.73;;;;;;;;;;2090924;28;20424;-56
2021/04/26 04:31:22;;;;;;;5.50;5.10;;;;;;;;;;2087914;28;20815;-58
2021/04/26 04:32:44;;;;;;;5.33;4.83;;;;;;;;;;2068784;28;20439;-58
2021/04/26 04:34:03;;;;;;;6.20;4.53;;;;;;;;;;2073280;28;20470;-58
2021/04/26 04:35:21;;;;;;;5.33;4.63;;;;;;;;;;2083729;28;20389;-57
2021/04/26 04:36:51;;;;;;;6.87;4.63;;;;;;;;;;2072462;28;20426;-58
2021/04/26 04:38:10;;;;;;;7.23;5.67;;;;;;;;;;2076276;28;20409;-59
2021/04/26 04:39:29;;;;;;;5.17;4.77;;;;;;;;;;2079517;28;20410;-59
2021/04/26 04:40:48;;;;;;;5.77;5.27;;;;;;;;;;2081161;28;20429;-59
2021/04/26 04:41:56;;;;;;;7.23;5.17;;;;;;;;;;2074664;28;20430;-58
2021/04/26 04:42:57;;;;;;;5.83;4.83;;;;;;;;;;2079977;28;20659;-60
2021/04/26 04:44:02;;;;;;;7.57;5.13;;;;;;;;;;2074877;28;20188;-58
2021/04/26 04:45:03;;;;;;;5.87;5.37;;;;;;;;;;2085873;28;20858;-58
2021/04/26 04:46:07;;;;;;;5.00;4.60;;;;;;;;;;2078091;28;20181;-59
2021/04/26 04:47:10;;;;;;;5.77;5.10;;;;;;;;;;2086144;28;20422;-53
2021/04/26 04:48:12;;;;;;;8.43;6.13;;;;;;;;;;2085421;28;20439;-59
2021/04/26 04:49:21;;;;;;;6.27;5.20;;;;;;;;;;2081204;28;20433;-56
2021/04/26 04:50:21;;;;;;;5.53;5.03;;;;;;;;;;2081439;28;20541;-57
2021/04/26 04:51:21;;;;;;;6.70;6.03;;;;;;;;;;2076734;28;20622;-55
2021/04/26 04:52:41;;;;;;;5.90;5.30;;;;;;;;;;2086615;28;20171;-57
2021/04/26 04:53:41;;;;;;;5.97;5.43;;;;;;;;;;2081855;28;20417;-59
2021/04/26 04:54:41;;;;;;;5.83;5.27;;;;;;;;;;2085566;28;20239;-59
2021/04/26 04:55:42;;;;;;;5.20;4.80;;;;;;;;;;2087200;28;20187;-59
2021/04/26 04:56:43;;;;;;;6.03;5.47;;;;;;;;;;2080500;28;20226;-61
2021/04/26 04:57:44;;;;;;;6.90;5.40;;;;;;;;;;2079615;28;20173;-61
2021/04/26 04:58:44;;;;;;;6.17;4.90;;;;;;;;;;2080274;28;20179;-58
2021/04/26 04:59:45;;;;;;;5.40;4.90;;;;;;;;;;2078403;28;20173;-59
2021/04/26 05:00:53;;;;;;;5.80;5.30;;;;;;;;;;2073344;28;20665;-59
2021/04/26 05:02:12;;;;;;;5.63;5.13;;;;;;;;;;2080468;28;20831;-58
2021/04/26 05:03:31;;;;;;;5.00;4.50;;;;;;;;;;2085674;28;20417;-57
2021/04/26 05:04:49;;;;;;;7.77;4.50;;;;;;;;;;2079770;28;20429;-59
2021/04/26 05:06:08;;;;;;;5.00;4.50;;;;;;;;;;2085380;28;21004;-60
2021/04/26 05:07:32;;;;;;;5.13;4.70;;;;;;;;;;2060549;28;20418;-57
2021/04/26 05:08:51;;;;;;;5.53;4.83;;;;;;;;;;2077663;28;20402;-60
2021/04/26 05:10:10;;;;;;;5.50;5.00;;;;;;;;;;2078996;28;20394;-60
2021/04/26 05:11:42;;;;;;;7.30;5.23;;;;;;;;;;2056090;28;20436;-61
2021/04/26 05:13:03;;;;;;;6.53;5.17;;;;;;;;;;2076691;28;20402;-60
2021/04/26 05:14:12;;;;;;;6.17;5.10;;;;;;;;;;2085506;28;20429;-60
2021/04/26 05:15:13;;;;;;;6.67;5.40;;;;;;;;;;2084509;28;20396;-58
2021/04/26 05:16:13;;;;;;;5.70;5.13;;;;;;;;;;2076625;28;20599;-61
2021/04/26 05:17:14;;;;;;;7.23;5.00;;;;;;;;;;2076089;28;20168;-61
2021/04/26 05:18:14;;;;;;;5.77;4.77;;;;;;;;;;2081627;28;20214;-61
2021/04/26 05:19:15;;;;;;;6.03;5.43;;;;;;;;;;2081818;28;20172;-61
2021/04/26 05:20:15;;;;;;;5.43;4.90;;;;;;;;;;2085696;28;20176;-60
2021/04/26 05:21:15;;;;;;;9.07;5.30;;;;;;;;;;2079967;28;20199;-62
2021/04/26 05:22:16;;;;;;;10.30;5.10;;;;;;;;;;2084996;28;20221;-61
2021/04/26 05:23:20;;;;;;;7.63;5.10;;;;;;;;;;2084106;28;20180;-61
2021/04/26 05:24:20;;;;;;;5.73;5.33;;;;;;;;;;2084205;28;20467;-61
2021/04/26 05:25:21;;;;;;;5.20;4.80;;;;;;;;;;2076660;28;20184;-61
2021/04/26 05:26:26;;;;;;;6.50;4.90;;;;;;;;;;2076621;28;20181;-61
2021/04/26 05:27:27;;;;;;;5.17;4.67;;;;;;;;;;2080475;28;21606;-61
2021/04/26 05:28:28;;;;;;;7.83;5.97;;;;;;;;;;2072859;28;20461;-60
2021/04/26 05:29:32;;;;;;;5.50;4.97;;;;;;;;;;2080676;28;20405;-61
2021/04/26 05:30:33;;;;;;;6.90;4.97;;;;;;;;;;2080416;28;20604;-60
2021/04/26 05:31:34;;;;;;;5.73;5.10;;;;;;;;;;2080204;28;20192;-59
2021/04/26 05:32:34;;;;;;;5.33;4.70;;;;;;;;;;2079947;28;20414;-60
2021/04/26 05:33:40;;;;;;;5.50;4.93;;;;;;;;;;2067747;28;20161;-61
2021/04/26 05:34:56;;;;;;;5.20;4.80;;;;;;;;;;2068588;28;20438;-62
2021/04/26 05:35:56;;;;;;;10.37;5.20;;;;;;;;;;2072889;28;20684;-59
2021/04/26 05:37:03;;;;;;;5.73;5.20;;;;;;;;;;2070279;28;20267;-61
2021/04/26 05:38:08;;;;;;;6.20;5.07;;;;;;;;;;2078504;28;20172;-61
2021/04/26 05:39:09;;;;;;;6.97;5.50;;;;;;;;;;2075107;28;20436;-61
2021/04/26 05:40:10;;;;;;;5.33;4.87;;;;;;;;;;2088871;28;20764;-61
2021/04/26 05:41:13;;;;;;;5.30;4.80;;;;;;;;;;2079525;28;20175;-61
2021/04/26 05:42:13;;;;;;;6.23;5.73;;;;;;;;;;2085403;28;20191;-60
2021/04/26 05:43:14;;;;;;;6.93;5.40;;;;;;;;;;2078872;28;20176;-59
2021/04/26 05:44:15;;;;;;;4.90;4.60;;;;;;;;;;2078052;28;20180;-62
2021/04/26 05:45:30;;;;;;;10.20;4.93;;;;;;;;;;2073586;28;20477;-62
2021/04/26 05:46:46;;;;;;;6.83;4.50;;;;;;;;;;2072854;28;20440;-60
2021/04/26 05:47:46;;;;;;;4.60;4.13;;;;;;;;;;2071400;28;20260;-66
2021/04/26 05:48:46;;;;;;;6.50;4.37;;;;;;;;;;2076440;28;20184;-59
2021/04/26 05:49:47;;;;;;;7.33;4.67;;;;;;;;;;2079720;28;20173;-55
2021/04/26 05:50:47;;;;;;;5.40;4.10;;;;;;;;;;2080332;28;20632;-56
2021/04/26 05:51:47;;;;;;;4.80;4.40;;;;;;;;;;2080462;28;20219;-60
2021/04/26 05:52:47;;;;;;;4.73;4.27;;;;;;;;;;2080183;28;20200;-61
2021/04/26 05:53:48;;;;;;;5.23;4.60;;;;;;;;;;2075245;28;20270;-62
2021/04/26 05:54:48;;;;;;;5.27;4.80;;;;;;;;;;2081135;28;20184;-61
2021/04/26 05:55:48;;;;;;;6.17;4.50;;;;;;;;;;2077549;28;20181;-60
2021/04/26 05:56:49;;;;;;;5.37;4.33;;;;;;;;;;2081038;28;20172;-65
2021/04/26 05:57:49;;;;;;;4.80;4.40;;;;;;;;;;2079701;28;20660;-62
2021/04/26 05:58:49;;;;;;;5.47;4.50;;;;;;;;;;2074545;28;20270;-63
2021/04/26 05:59:52;;;;;;;6.10;4.20;;;;;;;;;;2073081;28;20252;-64
2021/04/26 06:00:52;;;;;;;11.43;6.03;;;;;;;;;;2081022;28;20168;-64
2021/04/26 06:01:53;;;;;;;5.90;4.97;;;;;;;;;;2082196;28;20370;-63
2021/04/26 06:02:53;;;;;;;11.27;5.40;;;;;;;;;;2081178;28;20541;-61
2021/04/26 06:03:53;;;;;;;5.87;4.70;;;;;;;;;;2087899;28;20249;-60
2021/04/26 06:04:53;;;;;;;5.37;4.47;;;;;;;;;;2076254;28;20620;-62
2021/04/26 06:05:54;;;;;;;5.37;4.20;;;;;;;;;;2076132;28;20184;-63
2021/04/26 06:06:54;;;;;;;5.03;4.53;;;;;;;;;;2075136;28;20171;-63
2021/04/26 06:07:54;;;;;;;5.20;4.80;;;;;;;;;;2078250;28;20172;-62
2021/04/26 06:08:55;;;;;;;4.10;3.50;;;;;;;;;;2080577;28;20177;-63
2021/04/26 06:09:55;;;;;;;4.97;4.13;;;;;;;;;;2076263;28;20173;-64
2021/04/26 06:10:55;;;;;;;4.47;4.00;;;;;;;;;;2086654;28;20172;-63
2021/04/26 06:11:55;;;;;;;6.70;4.63;;;;;;;;;;2077542;28;20204;-61
2021/04/26 06:12:56;;;;;;;5.23;4.20;;;;;;;;;;2080301;28;20283;-61
2021/04/26 06:13:56;;;;;;;6.87;4.27;;;;;;;;;;2074259;28;20196;-64
2021/04/26 06:14:56;;;;;;;4.53;4.13;;;;;;;;;;2071570;28;20732;-63
2021/04/26 06:15:56;;;;;;;4.87;4.30;;;;;;;;;;2076470;28;20616;-63
2021/04/26 06:16:57;;;;;;;5.90;4.17;;;;;;;;;;2080868;28;20188;-64
2021/04/26 06:18:27;;;;;;;5.47;4.60;;;;;;;;;;2079885;28;20259;-64
2021/04/26 06:19:28;;;;;;;7.10;4.43;;;;;;;;;;2069671;28;20189;-64
2021/04/26 06:20:28;;;;;;;5.60;4.17;;;;;;;;;;2082051;28;20171;-62
2021/04/26 06:21:28;;;;;;;4.77;4.07;;;;;;;;;;2082643;28;20184;-63
2021/04/26 06:22:28;;;;;;;5.33;4.20;;;;;;;;;;2076921;28;20192;-62
2021/04/26 06:23:29;;;;;;;5.90;4.30;;;;;;;;;;2081709;28;20176;-62
2021/04/26 06:24:29;;;;;;;6.80;5.07;;;;;;;;;;2081260;28;20196;-60
2021/04/26 06:25:30;;;;;;;5.10;4.47;;;;;;;;;;2078383;28;20207;-61
2021/04/26 06:26:31;;;;;;;4.23;3.83;;;;;;;;;;2080632;28;20168;-63
2021/04/26 06:27:31;;;;;;;7.10;5.13;;;;;;;;;;2079408;28;20276;-60
2021/04/26 06:28:31;;;;;;;7.80;4.80;;;;;;;;;;2071097;28;20195;-65
2021/04/26 06:29:32;;;;;;;5.10;4.40;;;;;;;;;;2080068;28;20578;-61
2021/04/26 06:30:32;;;;;;;6.90;5.03;;;;;;;;;;2077979;28;20646;-63